Terminal Aerodrome Forecast
Issued by NWS

Home | Current Version | Previous Version | Text Only | Print | Product List | Glossary On
Versions: 1 2 3 4 5 6 7 8 9 10 11 12 13 14 15 16 17 18 19
000
FTUS46 KLOX 240538
TAFPRB
TAF
KPRB 240538Z 2406/2506 30008KT P6SM SKC
     FM240900 VRB03KT P6SM SKC
     FM241300 VRB03KT 6SM BR BKN004
     FM241500 VRB03KT P6SM SKC
     FM242200 21010KT P6SM SKC
     FM250200 30010KT P6SM SKC=

USA.gov is the U.S. government's official web portal to all federal, state and local government web resources and services.